Darstellungsparameter: Aktuell verwendete Einstellungen:
Skalierung der Graphiken ... ?
xyx+y,   Skalierungsfaktor:      Skalierung: Modus: x, Faktor: 1
Darstellungszeitraum ... ?
Vom - - bis: - -   Zeitraum: 17.11.2020 - 17.11.2020
Min/Max/Avg-Anzeige ... ?
Zeige MMA aktuell
Zeige MMA Monat
Zeige MMA alles
Zeige --A aktuell
Zeige --A Monat
Zeige --A alles
Keine MMA-Anzeige
MMA:
Keine MMA-Graphiken
MMA-Basis: 17.11.2020 - 17.11.2020
Quicknavigation für Darstellung... ?
Tage:      1T, 2T, 3T, 5T -1T -2T -3T -5T +1T +2T +3T +5T
Wochen: 1W, 2W, 3W -1W -2W -3W +1W +2W +3W
Monate: 1M, 3M, 6M -1M -3M -6M +1M +3M +6M
Jahre:    1J, 3J, 5J, 10J -1J -3J -5J -10J +1J +3J +5J +10J
Nutze für die Darstellung ... ?
Originaldaten oder Mittelwerte auf ...
Stundenbasis Tagesbasis Wochenbasis
Monatsbasis Jahresbasis      Datenbasis: Original-Daten
Darstellen als:
Statistik (Auto) Statistik J:M      Darstellung:
Zur Graphik,    zurück zur Übersicht aller Sensoren.
 
Tabellarische Datenbersicht: ?
 
Sensor: Nr:Datum:Temp:Feuchte:Taupunkt:
Aussen-T/F 1 17-11-2020 00:00:00 9.3 C 90 % 7.75 C
2 17-11-2020 00:05:00 9.4 C 90 % 7.85 C
3 17-11-2020 00:10:00 9.4 C 90 % 7.85 C
4 17-11-2020 00:15:00 9.4 C 90 % 7.85 C
5 17-11-2020 00:20:00 9.3 C 90 % 7.75 C
6 17-11-2020 00:25:00 9.2 C 90 % 7.65 C
7 17-11-2020 00:30:00 9.2 C 90 % 7.65 C
8 17-11-2020 00:35:00 9.3 C 90 % 7.75 C
9 17-11-2020 00:40:00 9.3 C 90 % 7.75 C
10 17-11-2020 00:45:00 9.4 C 90 % 7.85 C
11 17-11-2020 00:50:00 9.6 C 89 % 7.88 C
12 17-11-2020 00:55:00 9.7 C 89 % 7.98 C
13 17-11-2020 01:00:00 9.8 C 89 % 8.08 C
14 17-11-2020 01:05:00 9.8 C 89 % 8.08 C
15 17-11-2020 01:10:00 10 C 88 % 8.11 C
16 17-11-2020 01:15:00 10 C 88 % 8.11 C
17 17-11-2020 01:20:00 10.1 C 88 % 8.21 C
18 17-11-2020 01:25:00 10 C 88 % 8.11 C
19 17-11-2020 01:30:00 10 C 88 % 8.11 C
20 17-11-2020 01:35:00 10 C 88 % 8.11 C
21 17-11-2020 01:40:00 10.1 C 88 % 8.21 C
22 17-11-2020 01:45:00 10.1 C 87 % 8.04 C
23 17-11-2020 01:50:00 10.2 C 87 % 8.14 C
24 17-11-2020 01:55:00 10.2 C 87 % 8.14 C
25 17-11-2020 02:00:00 10.2 C 87 % 8.14 C
Sensor: Nr:Datum:Temp:Feuchte:Taupunkt:
Aussen-T/F 26 17-11-2020 02:05:00 10.3 C 87 % 8.23 C
27 17-11-2020 02:10:00 10.3 C 87 % 8.23 C
28 17-11-2020 02:15:00 10.4 C 87 % 8.33 C
29 17-11-2020 02:20:00 10.4 C 87 % 8.33 C
30 17-11-2020 02:25:00 10.4 C 87 % 8.33 C
31 17-11-2020 02:30:00 10.5 C 87 % 8.43 C
32 17-11-2020 02:35:00 10.6 C 87 % 8.53 C
33 17-11-2020 02:40:00 10.6 C 87 % 8.53 C
34 17-11-2020 02:45:00 10.6 C 87 % 8.53 C
35 17-11-2020 02:50:00 10.5 C 87 % 8.43 C
36 17-11-2020 02:55:00 10.5 C 87 % 8.43 C
37 17-11-2020 03:00:00 10.5 C 87 % 8.43 C
38 17-11-2020 03:05:00 10.6 C 87 % 8.53 C
39 17-11-2020 03:10:00 10.6 C 86 % 8.36 C
40 17-11-2020 03:15:00 10.6 C 86 % 8.36 C
41 17-11-2020 03:20:00 10.6 C 86 % 8.36 C
42 17-11-2020 03:25:00 10.6 C 86 % 8.36 C
43 17-11-2020 03:30:00 10.5 C 86 % 8.26 C
44 17-11-2020 03:35:00 10.6 C 87 % 8.53 C
45 17-11-2020 03:40:00 10.6 C 86 % 8.36 C
46 17-11-2020 03:45:00 10.6 C 87 % 8.53 C
47 17-11-2020 03:50:00 10.6 C 86 % 8.36 C
48 17-11-2020 03:55:00 10.7 C 86 % 8.46 C
49 17-11-2020 04:00:00 10.7 C 86 % 8.46 C
50 17-11-2020 04:05:00 10.7 C 86 % 8.46 C
Sensor: Nr:Datum:Temp:Feuchte:Taupunkt:
Aussen-T/F 51 17-11-2020 04:10:00 10.6 C 86 % 8.36 C
52 17-11-2020 04:15:00 10.6 C 87 % 8.53 C
53 17-11-2020 04:20:00 10.6 C 87 % 8.53 C
54 17-11-2020 04:25:00 10.6 C 87 % 8.53 C
55 17-11-2020 04:30:00 10.7 C 87 % 8.63 C
56 17-11-2020 04:35:00 10.7 C 86 % 8.46 C
57 17-11-2020 04:40:00 10.7 C 86 % 8.46 C
58 17-11-2020 04:45:00 10.7 C 86 % 8.46 C
59 17-11-2020 04:50:00 10.8 C 86 % 8.56 C
60 17-11-2020 04:55:00 10.8 C 86 % 8.56 C
61 17-11-2020 05:00:00 10.8 C 86 % 8.56 C
62 17-11-2020 05:05:00 10.8 C 86 % 8.56 C
63 17-11-2020 05:10:00 10.7 C 86 % 8.46 C
64 17-11-2020 05:15:00 10.7 C 86 % 8.46 C
65 17-11-2020 05:20:00 10.8 C 86 % 8.56 C
66 17-11-2020 05:25:00 10.8 C 86 % 8.56 C
67 17-11-2020 05:30:00 10.8 C 86 % 8.56 C
68 17-11-2020 05:35:00 10.8 C 86 % 8.56 C
69 17-11-2020 05:40:00 10.8 C 86 % 8.56 C
70 17-11-2020 05:45:00 10.7 C 87 % 8.63 C
71 17-11-2020 05:50:00 10.6 C 88 % 8.7 C
72 17-11-2020 05:55:00 10.5 C 88 % 8.6 C
73 17-11-2020 06:00:00 10.4 C 89 % 8.67 C
74 17-11-2020 06:05:00 10.3 C 89 % 8.57 C
75 17-11-2020 06:10:00 10.3 C 89 % 8.57 C
Sensor: Nr:Datum:Temp:Feuchte:Taupunkt:
Aussen-T/F 76 17-11-2020 06:15:00 10.3 C 89 % 8.57 C
77 17-11-2020 06:20:00 10.4 C 88 % 8.5 C
78 17-11-2020 06:25:00 10.4 C 88 % 8.5 C
79 17-11-2020 06:30:00 10.4 C 88 % 8.5 C
80 17-11-2020 06:35:00 10.5 C 87 % 8.43 C
81 17-11-2020 06:40:00 10.6 C 87 % 8.53 C
82 17-11-2020 06:45:00 10.6 C 87 % 8.53 C
83 17-11-2020 06:50:00 10.6 C 86 % 8.36 C
84 17-11-2020 06:55:00 10.6 C 87 % 8.53 C
85 17-11-2020 07:00:00 10.6 C 86 % 8.36 C
86 17-11-2020 07:05:00 10.6 C 86 % 8.36 C
87 17-11-2020 07:10:00 10.6 C 86 % 8.36 C
88 17-11-2020 07:15:00 10.6 C 86 % 8.36 C
89 17-11-2020 07:20:00 10.6 C 86 % 8.36 C
90 17-11-2020 07:25:00 10.6 C 86 % 8.36 C
91 17-11-2020 07:30:00 10.6 C 86 % 8.36 C
92 17-11-2020 07:35:00 10.6 C 86 % 8.36 C
93 17-11-2020 07:40:00 10.6 C 86 % 8.36 C
94 17-11-2020 07:45:00 10.6 C 86 % 8.36 C
95 17-11-2020 07:50:00 10.6 C 86 % 8.36 C
96 17-11-2020 07:55:00 10.7 C 86 % 8.46 C
97 17-11-2020 08:00:00 10.7 C 86 % 8.46 C
98 17-11-2020 08:05:00 10.6 C 86 % 8.36 C
99 17-11-2020 08:10:00 10.6 C 86 % 8.36 C
100 17-11-2020 08:15:00 10.6 C 86 % 8.36 C
Sensor: Nr:Datum:Temp:Feuchte:Taupunkt:
Aussen-T/F 101 17-11-2020 08:20:00 10.7 C 86 % 8.46 C
102 17-11-2020 08:25:00 10.7 C 86 % 8.46 C
103 17-11-2020 08:30:00 10.7 C 86 % 8.46 C
104 17-11-2020 08:35:00 10.7 C 86 % 8.46 C
105 17-11-2020 08:40:00 10.7 C 86 % 8.46 C
106 17-11-2020 08:45:00 10.8 C 86 % 8.56 C
107 17-11-2020 08:50:00 10.8 C 86 % 8.56 C
108 17-11-2020 08:55:00 10.8 C 86 % 8.56 C
109 17-11-2020 09:00:00 10.8 C 86 % 8.56 C
110 17-11-2020 09:05:00 10.8 C 86 % 8.56 C
111 17-11-2020 09:10:00 10.8 C 86 % 8.56 C
112 17-11-2020 09:15:00 10.9 C 86 % 8.65 C
113 17-11-2020 09:20:00 10.9 C 86 % 8.65 C
114 17-11-2020 09:25:00 11 C 86 % 8.75 C
115 17-11-2020 09:30:00 11.1 C 86 % 8.85 C
116 17-11-2020 09:35:00 11.1 C 86 % 8.85 C
117 17-11-2020 09:40:00 11.1 C 86 % 8.85 C
118 17-11-2020 09:45:00 11.1 C 85 % 8.68 C
119 17-11-2020 09:50:00 11.2 C 86 % 8.95 C
120 17-11-2020 09:55:00 11.2 C 85 % 8.77 C
121 17-11-2020 10:00:00 11.2 C 85 % 8.77 C
122 17-11-2020 10:05:00 11.2 C 85 % 8.77 C
123 17-11-2020 10:10:00 11.2 C 85 % 8.77 C
124 17-11-2020 10:15:00 11.2 C 86 % 8.95 C
125 17-11-2020 10:20:00 11.3 C 85 % 8.87 C
Sensor: Nr:Datum:Temp:Feuchte:Taupunkt:
Aussen-T/F 126 17-11-2020 10:25:00 11.4 C 85 % 8.97 C
127 17-11-2020 10:30:00 11.4 C 85 % 8.97 C
128 17-11-2020 10:35:00 11.4 C 85 % 8.97 C
129 17-11-2020 10:40:00 11.5 C 85 % 9.07 C
130 17-11-2020 10:45:00 11.6 C 84 % 8.99 C
131 17-11-2020 10:50:00 11.7 C 84 % 9.09 C
132 17-11-2020 10:55:00 11.8 C 84 % 9.19 C
133 17-11-2020 11:00:00 11.8 C 84 % 9.19 C
134 17-11-2020 11:05:00 11.8 C 84 % 9.19 C
135 17-11-2020 11:10:00 11.9 C 84 % 9.29 C
136 17-11-2020 11:15:00 11.9 C 83 % 9.11 C
137 17-11-2020 11:20:00 11.9 C 83 % 9.11 C
138 17-11-2020 11:25:00 11.9 C 83 % 9.11 C
139 17-11-2020 11:30:00 11.9 C 83 % 9.11 C
140 17-11-2020 11:35:00 12 C 83 % 9.21 C
141 17-11-2020 11:40:00 12.1 C 83 % 9.3 C
142 17-11-2020 11:45:00 12.2 C 83 % 9.4 C
143 17-11-2020 11:50:00 12.2 C 83 % 9.4 C
144 17-11-2020 11:55:00 12.3 C 83 % 9.5 C
145 17-11-2020 12:00:00 12.3 C 83 % 9.5 C
146 17-11-2020 12:05:00 12.4 C 82 % 9.42 C
147 17-11-2020 12:10:00 12.5 C 82 % 9.51 C
148 17-11-2020 12:15:00 12.6 C 82 % 9.61 C
149 17-11-2020 12:20:00 12.6 C 82 % 9.61 C
150 17-11-2020 12:25:00 12.7 C 82 % 9.71 C
Sensor: Nr:Datum:Temp:Feuchte:Taupunkt:
Aussen-T/F 151 17-11-2020 12:30:00 12.7 C 82 % 9.71 C
152 17-11-2020 12:35:00 12.8 C 81 % 9.62 C
153 17-11-2020 12:40:00 12.8 C 81 % 9.62 C
154 17-11-2020 12:45:00 12.8 C 80 % 9.44 C
155 17-11-2020 12:50:00 12.8 C 81 % 9.62 C
156 17-11-2020 12:55:00 12.7 C 81 % 9.53 C
157 17-11-2020 13:00:00 12.7 C 81 % 9.53 C
158 17-11-2020 13:05:00 12.7 C 81 % 9.53 C
159 17-11-2020 13:10:00 12.7 C 81 % 9.53 C
160 17-11-2020 13:15:00 12.8 C 81 % 9.62 C
161 17-11-2020 13:20:00 12.8 C 81 % 9.62 C
162 17-11-2020 13:25:00 12.8 C 81 % 9.62 C
163 17-11-2020 13:30:00 12.9 C 81 % 9.72 C
164 17-11-2020 13:35:00 12.9 C 81 % 9.72 C
165 17-11-2020 13:40:00 12.9 C 81 % 9.72 C
166 17-11-2020 13:45:00 12.9 C 81 % 9.72 C
167 17-11-2020 13:50:00 12.9 C 81 % 9.72 C
168 17-11-2020 13:55:00 12.9 C 81 % 9.72 C
169 17-11-2020 14:00:00 13 C 80 % 9.63 C
170 17-11-2020 14:05:00 13.1 C 80 % 9.73 C
171 17-11-2020 14:10:00 13.1 C 80 % 9.73 C
172 17-11-2020 14:15:00 13.2 C 80 % 9.83 C
173 17-11-2020 14:20:00 13.1 C 80 % 9.73 C
174 17-11-2020 14:25:00 13.1 C 80 % 9.73 C
175 17-11-2020 14:30:00 13.1 C 80 % 9.73 C
Sensor: Nr:Datum:Temp:Feuchte:Taupunkt:
Aussen-T/F 176 17-11-2020 14:35:00 13.1 C 80 % 9.73 C
177 17-11-2020 14:40:00 13 C 80 % 9.63 C
178 17-11-2020 14:45:00 12.9 C 80 % 9.54 C
179 17-11-2020 14:50:00 12.9 C 80 % 9.54 C
180 17-11-2020 14:55:00 12.9 C 81 % 9.72 C
181 17-11-2020 15:00:00 12.8 C 81 % 9.62 C
182 17-11-2020 15:05:00 12.8 C 81 % 9.62 C
183 17-11-2020 15:10:00 12.8 C 81 % 9.62 C
184 17-11-2020 15:15:00 12.8 C 81 % 9.62 C
185 17-11-2020 15:20:00 12.8 C 81 % 9.62 C
186 17-11-2020 15:25:00 12.8 C 81 % 9.62 C
187 17-11-2020 15:30:00 12.8 C 81 % 9.62 C
188 17-11-2020 15:35:00 12.8 C 81 % 9.62 C
189 17-11-2020 15:40:00 12.8 C 81 % 9.62 C
190 17-11-2020 15:45:00 12.8 C 81 % 9.62 C
191 17-11-2020 15:50:00 12.8 C 81 % 9.62 C
192 17-11-2020 15:55:00 12.8 C 81 % 9.62 C
193 17-11-2020 16:00:00 12.8 C 81 % 9.62 C
194 17-11-2020 16:05:00 12.7 C 81 % 9.53 C
195 17-11-2020 16:10:00 12.7 C 81 % 9.53 C
196 17-11-2020 16:15:00 12.7 C 81 % 9.53 C
197 17-11-2020 16:20:00 12.7 C 81 % 9.53 C
198 17-11-2020 16:25:00 12.7 C 81 % 9.53 C
199 17-11-2020 16:30:00 12.7 C 82 % 9.71 C
200 17-11-2020 16:35:00 12.6 C 82 % 9.61 C
Sensor: Nr:Datum:Temp:Feuchte:Taupunkt:
Aussen-T/F 201 17-11-2020 16:40:00 12.6 C 81 % 9.43 C
202 17-11-2020 16:45:00 12.6 C 82 % 9.61 C
203 17-11-2020 16:50:00 12.6 C 82 % 9.61 C
204 17-11-2020 16:55:00 12.5 C 82 % 9.51 C
205 17-11-2020 17:00:00 12.5 C 82 % 9.51 C
206 17-11-2020 17:05:00 12.4 C 82 % 9.42 C
207 17-11-2020 17:10:00 12.4 C 82 % 9.42 C
208 17-11-2020 17:15:00 12.4 C 82 % 9.42 C
209 17-11-2020 17:20:00 12.4 C 82 % 9.42 C
210 17-11-2020 17:25:00 12.4 C 83 % 9.6 C
211 17-11-2020 17:30:00 12.4 C 83 % 9.6 C
212 17-11-2020 17:35:00 12.3 C 83 % 9.5 C
213 17-11-2020 17:40:00 12.3 C 83 % 9.5 C
214 17-11-2020 17:45:00 12.3 C 83 % 9.5 C
215 17-11-2020 17:50:00 12.3 C 83 % 9.5 C
216 17-11-2020 17:55:00 12.3 C 83 % 9.5 C
217 17-11-2020 18:00:00 12.3 C 83 % 9.5 C
218 17-11-2020 18:05:00 12.3 C 83 % 9.5 C
219 17-11-2020 18:10:00 12.3 C 83 % 9.5 C
220 17-11-2020 18:15:00 12.3 C 83 % 9.5 C
221 17-11-2020 18:20:00 12.3 C 83 % 9.5 C
222 17-11-2020 18:25:00 12.3 C 83 % 9.5 C
223 17-11-2020 18:30:00 12.3 C 83 % 9.5 C
224 17-11-2020 18:35:00 12.2 C 83 % 9.4 C
225 17-11-2020 18:40:00 12.2 C 83 % 9.4 C
Sensor: Nr:Datum:Temp:Feuchte:Taupunkt:
Aussen-T/F 226 17-11-2020 18:45:00 12.2 C 84 % 9.58 C
227 17-11-2020 18:50:00 12.2 C 84 % 9.58 C
228 17-11-2020 18:55:00 12.1 C 84 % 9.48 C
229 17-11-2020 19:00:00 12.1 C 84 % 9.48 C
230 17-11-2020 19:05:00 12.1 C 84 % 9.48 C
231 17-11-2020 19:10:00 12.1 C 84 % 9.48 C
232 17-11-2020 19:15:00 12 C 84 % 9.38 C
233 17-11-2020 19:20:00 12 C 84 % 9.38 C
234 17-11-2020 19:25:00 11.9 C 85 % 9.46 C
235 17-11-2020 19:30:00 11.9 C 85 % 9.46 C
236 17-11-2020 19:35:00 11.9 C 85 % 9.46 C
237 17-11-2020 19:40:00 11.9 C 85 % 9.46 C
238 17-11-2020 19:45:00 11.9 C 85 % 9.46 C
239 17-11-2020 19:50:00 11.8 C 85 % 9.36 C
240 17-11-2020 19:55:00 11.8 C 86 % 9.54 C
241 17-11-2020 20:00:00 11.9 C 86 % 9.64 C
242 17-11-2020 20:05:00 11.9 C 86 % 9.64 C
243 17-11-2020 20:10:00 11.9 C 86 % 9.64 C
244 17-11-2020 20:15:00 11.8 C 86 % 9.54 C
245 17-11-2020 20:20:00 11.8 C 86 % 9.54 C
246 17-11-2020 20:25:00 11.8 C 86 % 9.54 C
247 17-11-2020 20:30:00 11.8 C 86 % 9.54 C
248 17-11-2020 20:35:00 11.8 C 86 % 9.54 C
249 17-11-2020 20:40:00 11.8 C 86 % 9.54 C
250 17-11-2020 20:45:00 11.9 C 86 % 9.64 C
Sensor: Nr:Datum:Temp:Feuchte:Taupunkt:
Aussen-T/F 251 17-11-2020 20:50:00 11.9 C 86 % 9.64 C
252 17-11-2020 20:55:00 11.9 C 86 % 9.64 C
253 17-11-2020 21:00:00 11.9 C 86 % 9.64 C
254 17-11-2020 21:05:00 11.8 C 86 % 9.54 C
255 17-11-2020 21:10:00 11.8 C 86 % 9.54 C
256 17-11-2020 21:15:00 11.8 C 86 % 9.54 C
257 17-11-2020 21:20:00 11.9 C 86 % 9.64 C
258 17-11-2020 21:25:00 11.9 C 86 % 9.64 C
259 17-11-2020 21:30:00 11.8 C 86 % 9.54 C
260 17-11-2020 21:35:00 11.8 C 86 % 9.54 C
261 17-11-2020 21:40:00 11.8 C 86 % 9.54 C
262 17-11-2020 21:45:00 11.8 C 86 % 9.54 C
263 17-11-2020 21:50:00 11.8 C 86 % 9.54 C
264 17-11-2020 21:55:00 11.8 C 86 % 9.54 C
265 17-11-2020 22:00:00 11.8 C 86 % 9.54 C
266 17-11-2020 22:05:00 11.7 C 86 % 9.44 C
267 17-11-2020 22:10:00 11.7 C 86 % 9.44 C
268 17-11-2020 22:15:00 11.7 C 86 % 9.44 C
269 17-11-2020 22:20:00 11.7 C 86 % 9.44 C
270 17-11-2020 22:25:00 11.7 C 87 % 9.61 C
271 17-11-2020 22:30:00 11.7 C 87 % 9.61 C
272 17-11-2020 22:35:00 11.6 C 87 % 9.51 C
273 17-11-2020 22:40:00 11.6 C 87 % 9.51 C
274 17-11-2020 22:45:00 11.6 C 87 % 9.51 C
275 17-11-2020 22:50:00 11.6 C 87 % 9.51 C
Sensor: Nr:Datum:Temp:Feuchte:Taupunkt:
Aussen-T/F 276 17-11-2020 22:55:00 11.6 C 87 % 9.51 C
277 17-11-2020 23:00:00 11.6 C 86 % 9.34 C
278 17-11-2020 23:05:00 11.6 C 86 % 9.34 C
279 17-11-2020 23:10:00 11.6 C 86 % 9.34 C
280 17-11-2020 23:15:00 11.5 C 86 % 9.24 C
281 17-11-2020 23:20:00 11.5 C 86 % 9.24 C
282 17-11-2020 23:25:00 11.5 C 86 % 9.24 C
283 17-11-2020 23:30:00 11.6 C 86 % 9.34 C
284 17-11-2020 23:35:00 11.6 C 85 % 9.17 C
285 17-11-2020 23:40:00 11.6 C 85 % 9.17 C
286 17-11-2020 23:45:00 11.6 C 85 % 9.17 C
287 17-11-2020 23:50:00 11.6 C 85 % 9.17 C
288 17-11-2020 23:55:00 11.7 C 85 % 9.27 C

Legende:
   Min
   Max


Maximal/Minimal-Werte vom 17.11.2020 - 17.11.2020

Sensor Min Max Avg
Temp
(Aussen-T/F)
9.2 °C
17-11-2020  00:25:00
13.2 °C
17-11-2020  14:15:00
11.48 °C
Feuchte
(Aussen-T/F)
80 %
17-11-2020  12:45:00
90 %
17-11-2020  00:00:00
84.89 %
Taupunkt
(Aussen-T/F)
7.65 C
17-11-2020  00:25:00
9.83 C
17-11-2020  14:15:00
8.99 C

Die Daten stammen von einer Davis Vantage Pro 2 Wetter-Station und werden unter Linux mit der Software wview2wettercgi und aufbereitet. Alle Angaben erfolgen ohne Gewähr für ihre Vollständigkeit oder Richtigkeit.
Kontakt: Rainer Krienke krienke@uni-koblenz.de . Meine Webseiten an der Uni Koblenz oder privat.
Version: $Revision: 0.78 $